Time;durP1;ratioP1;P1;durP2;ratioP2;P2;SDS_P1;SDS_P2;PMS_P1;PMS_P2;Temp;Humidity;BMP_temperature;BMP_pressure;BME280_temperature;BME280_humidity;BME280_pressure;Samples;Min_cycle;Max_cycle;Signal;HPM_P1;HPM_P2
2021/08/04 02:48:02;;;;;;;;;;;14.00;99.90;;;;;;5;36059402;41271549;-86
2021/08/04 02:51:21;;;;;;;;;;;13.90;99.90;;;;;;5;36017293;41269055;-85
2021/08/04 02:54:42;;;;;;;;;;;13.90;99.90;;;;;;5;36017710;41269390;-86
2021/08/04 02:58:02;;;;;;;;;;;13.80;99.90;;;;;;5;36014963;41267518;-86
2021/08/04 03:01:16;;;;;;;;;;;13.80;99.90;;;;;;5;36016421;41267899;-85
2021/08/04 03:04:35;;;;;;;;;;;13.80;99.90;;;;;;5;36015932;42016910;-86
2021/08/04 03:07:54;;;;;;;;;;;13.80;99.90;;;;;;5;36016222;41268841;-86
2021/08/04 03:11:13;;;;;;;;;;;13.80;99.90;;;;;;5;36016681;41266795;-85
2021/08/04 03:14:28;;;;;;;;;;;13.80;99.90;;;;;;5;36014788;41267600;-86
2021/08/04 03:17:45;;;;;;;;;;;13.80;99.90;;;;;;5;36015574;41269966;-86
2021/08/04 03:21:04;;;;;;;;;;;13.80;99.90;;;;;;5;36015353;41267571;-84
2021/08/04 03:24:24;;;;;;;;;;;13.80;99.90;;;;;;5;36015456;41267399;-84
2021/08/04 03:27:38;;;;;;;;;;;13.90;99.90;;;;;;5;36014665;41268232;-86
2021/08/04 03:30:55;;;;;;;;;;;13.80;99.90;;;;;;5;36014453;41268622;-86
2021/08/04 03:34:14;;;;;;;;;;;13.90;99.90;;;;;;5;36014660;41269290;-85
2021/08/04 03:37:35;;;;;;;;;;;13.90;99.90;;;;;;5;36015864;42017490;-86
2021/08/04 03:40:49;;;;;;;;;;;13.90;99.90;;;;;;5;36014873;41267900;-84
2021/08/04 03:44:07;;;;;;;;;;;13.90;99.90;;;;;;5;36014943;41267677;-84
2021/08/04 03:47:26;;;;;;;;;;;14.00;99.90;;;;;;5;36017318;41269079;-85
2021/08/04 03:50:46;;;;;;;;;;;14.00;99.90;;;;;;5;36014819;41269304;-84
2021/08/04 03:54:00;;;;;;;;;;;14.00;99.90;;;;;;5;36015435;41268058;-84
2021/08/04 03:57:17;;;;;;;;;;;14.00;99.90;;;;;;5;36015210;41268397;-85
2021/08/04 04:00:36;;;;;;;;;;;14.10;99.90;;;;;;5;36015942;41268827;-85
2021/08/04 04:03:56;;;;;;;;;;;14.10;99.90;;;;;;5;36016624;41271550;-85
2021/08/04 04:07:10;;;;;;;;;;;14.10;99.90;;;;;;5;36016080;41268061;-85
2021/08/04 04:10:28;;;;;;;;;;;14.10;99.90;;;;;;5;36016697;42017142;-84
2021/08/04 04:13:48;;;;;;;;;;;14.10;99.90;;;;;;5;36015035;41268247;-84
2021/08/04 04:17:07;;;;;;;;;;;14.10;99.90;;;;;;5;36015858;41267005;-84
2021/08/04 04:20:21;;;;;;;;;;;14.10;99.90;;;;;;5;36016021;41267408;-84
2021/08/04 04:23:39;;;;;;;;;;;14.10;99.90;;;;;;5;36015518;41267468;-86
2021/08/04 04:26:58;;;;;;;;;;;14.10;99.90;;;;;;5;36015361;41266782;-86
2021/08/04 04:30:18;;;;;;;;;;;14.10;99.90;;;;;;5;36014157;41268293;-86
2021/08/04 04:37:27;;;;;;;;;;;14.00;99.90;;;;;;5;36016359;41267916;-86
2021/08/04 04:40:46;;;;;;;;;;;14.10;99.90;;;;;;5;36015984;41269030;-85
2021/08/04 04:44:07;;;;;;;;;;;14.10;99.90;;;;;;5;36015371;42017674;-87
2021/08/04 04:47:21;;;;;;;;;;;14.10;99.90;;;;;;5;36015470;41267998;-83
2021/08/04 04:50:39;;;;;;;;;;;14.10;99.90;;;;;;5;36016145;41267149;-86
2021/08/04 04:53:58;;;;;;;;;;;14.10;99.90;;;;;;5;36014531;41268270;-84
2021/08/04 04:57:17;;;;;;;;;;;14.20;99.90;;;;;;5;36016060;41267507;-84
2021/08/04 05:00:32;;;;;;;;;;;14.20;99.90;;;;;;5;36015908;41267574;-85
2021/08/04 05:03:49;;;;;;;;;;;14.30;99.90;;;;;;5;36015283;41267993;-84
2021/08/04 05:07:08;;;;;;;;;;;14.30;99.90;;;;;;5;36014867;41267310;-84
2021/08/04 05:10:28;;;;;;;;;;;14.40;99.90;;;;;;5;36016625;41267723;-83
2021/08/04 05:13:42;;;;;;;;;;;14.40;99.90;;;;;;5;36015807;41267046;-84
2021/08/04 05:17:00;;;;;;;;;;;14.50;99.90;;;;;;5;36016373;42017308;-85
2021/08/04 05:20:21;;;;;;;;;;;14.50;99.90;;;;;;5;36014391;41267903;-87
2021/08/04 05:23:41;;;;;;;;;;;14.60;99.90;;;;;;5;36015830;41267355;-86
2021/08/04 05:26:55;;;;;;;;;;;14.60;99.90;;;;;;5;36015425;41267842;-86
2021/08/04 05:30:13;;;;;;;;;;;14.60;99.90;;;;;;5;36014440;41268179;-86
2021/08/04 05:33:32;;;;;;;;;;;14.70;99.90;;;;;;5;36016294;41268172;-86
2021/08/04 05:36:52;;;;;;;;;;;14.70;99.90;;;;;;5;36015022;41267236;-85
2021/08/04 05:40:07;;;;;;;;;;;14.70;99.90;;;;;;5;36015821;41267431;-86
2021/08/04 05:43:24;;;;;;;;;;;14.80;99.90;;;;;;5;36015178;41267133;-86
2021/08/04 05:46:43;;;;;;;;;;;14.90;99.90;;;;;;5;36014707;41268105;-83
2021/08/04 05:50:05;;;;;;;;;;;14.90;99.90;;;;;;5;36016087;42016758;-86
2021/08/04 05:53:19;;;;;;;;;;;14.90;99.90;;;;;;5;36015029;41267926;-87
2021/08/04 05:56:37;;;;;;;;;;;15.00;99.90;;;;;;5;36014421;41268194;-85
2021/08/04 05:59:57;;;;;;;;;;;15.10;99.90;;;;;;5;36015346;41267913;-84
2021/08/04 06:03:16;;;;;;;;;;;15.10;99.90;;;;;;5;36015379;41268763;-87
2021/08/04 06:06:30;;;;;;;;;;;15.20;99.90;;;;;;5;36015774;41266894;-86
2021/08/04 06:09:47;;;;;;;;;;;15.20;99.90;;;;;;5;36014935;41267023;-86
2021/08/04 06:13:07;;;;;;;;;;;15.30;99.90;;;;;;5;36015457;41268625;-86
2021/08/04 06:16:26;;;;;;;;;;;15.30;99.90;;;;;;5;36015324;41268536;-86
2021/08/04 06:19:40;;;;;;;;;;;15.40;99.90;;;;;;5;36015221;41268031;-86
2021/08/04 06:22:59;;;;;;;;;;;15.40;99.90;;;;;;5;36016434;42018306;-86
2021/08/04 06:26:18;;;;;;;;;;;15.50;99.90;;;;;;5;36015087;41267766;-85
2021/08/04 06:29:38;;;;;;;;;;;15.50;99.90;;;;;;5;36014502;41269610;-86
2021/08/04 06:32:52;;;;;;;;;;;15.50;99.90;;;;;;5;36015006;41267434;-86
2021/08/04 06:36:09;;;;;;;;;;;15.50;99.90;;;;;;5;36015135;41267956;-85
2021/08/04 06:39:28;;;;;;;;;;;15.40;99.90;;;;;;5;36015800;41267030;-85
2021/08/04 06:42:48;;;;;;;;;;;15.30;99.90;;;;;;5;36014787;41267547;-86
2021/08/04 06:46:07;;;;;;;;;;;15.40;99.90;;;;;;5;36015986;41267220;-86
2021/08/04 06:49:24;;;;;;;;;;;15.40;99.90;;;;;;5;36015423;41267490;-86
2021/08/04 06:52:44;;;;;;;;;;;15.40;99.90;;;;;;5;36015655;41268417;-86
2021/08/04 06:56:05;;;;;;;;;;;15.40;99.90;;;;;;5;36014397;42017493;-84
2021/08/04 06:59:19;;;;;;;;;;;15.50;99.90;;;;;;5;36015832;41269069;-83
2021/08/04 07:02:36;;;;;;;;;;;15.50;99.90;;;;;;5;36015258;41267968;-84
2021/08/04 07:05:56;;;;;;;;;;;15.60;99.90;;;;;;5;36015013;41267776;-86
2021/08/04 07:09:15;;;;;;;;;;;15.70;99.90;;;;;;5;36016462;41267676;-85
2021/08/04 07:12:29;;;;;;;;;;;15.80;99.90;;;;;;5;36015327;41266978;-85
2021/08/04 07:15:46;;;;;;;;;;;15.90;99.90;;;;;;5;36015761;41266808;-85
2021/08/04 07:19:06;;;;;;;;;;;16.00;99.90;;;;;;5;36015423;41268888;-86
2021/08/04 07:22:25;;;;;;;;;;;16.10;99.90;;;;;;5;36018252;41268164;-85
2021/08/04 07:25:39;;;;;;;;;;;16.30;99.90;;;;;;5;36015192;41268205;-86
2021/08/04 07:28:58;;;;;;;;;;;16.30;99.90;;;;;;5;36014321;42018070;-87
2021/08/04 07:32:17;;;;;;;;;;;16.50;99.90;;;;;;5;36016562;41267626;-85
2021/08/04 07:35:37;;;;;;;;;;;16.70;99.90;;;;;;5;36015427;41267508;-85
2021/08/04 07:38:51;;;;;;;;;;;16.90;99.90;;;;;;5;36014800;41268628;-85
2021/08/04 07:42:08;;;;;;;;;;;17.00;99.90;;;;;;5;36014876;41266395;-86
2021/08/04 07:45:27;;;;;;;;;;;17.20;99.90;;;;;;5;36014449;41267789;-86
2021/08/04 07:48:47;;;;;;;;;;;17.30;99.90;;;;;;5;36016078;41266942;-85
2021/08/04 07:52:02;;;;;;;;;;;17.40;99.90;;;;;;5;36015296;41267790;-85
2021/08/04 07:55:19;;;;;;;;;;;17.40;99.90;;;;;;5;36015471;41268327;-85
2021/08/04 07:58:38;;;;;;;;;;;17.60;99.90;;;;;;5;36014449;41269284;-85
2021/08/04 08:02:00;;;;;;;;;;;18.00;99.90;;;;;;5;36015074;42017088;-84
2021/08/04 08:05:14;;;;;;;;;;;18.20;99.90;;;;;;5;36015119;41267710;-85
2021/08/04 08:08:31;;;;;;;;;;;18.50;99.90;;;;;;5;36015221;41269178;-83
2021/08/04 08:11:51;;;;;;;;;;;18.90;99.90;;;;;;5;36014062;41268135;-84
2021/08/04 08:15:48;;;;;;;;;;;19.20;99.90;;;;;;5;36014768;41266071;-83
2021/08/04 08:19:02;;;;;;;;;;;19.30;99.90;;;;;;5;36014351;41268459;-84
2021/08/04 08:22:19;;;;;;;;;;;19.40;99.80;;;;;;5;36015643;41267555;-85
2021/08/04 08:25:39;;;;;;;;;;;19.60;98.80;;;;;;5;36016870;41268343;-84
2021/08/04 08:28:58;;;;;;;;;;;19.70;97.30;;;;;;5;36016603;41267392;-85
2021/08/04 08:32:12;;;;;;;;;;;19.90;95.80;;;;;;5;36015317;41267617;-85
2021/08/04 08:35:31;;;;;;;;;;;20.10;96.00;;;;;;5;36014382;42018412;-84
2021/08/04 08:38:50;;;;;;;;;;;20.40;94.50;;;;;;5;36014727;41267380;-85
2021/08/04 08:42:10;;;;;;;;;;;20.60;93.10;;;;;;5;36014852;41267999;-85
2021/08/04 08:45:24;;;;;;;;;;;21.20;93.00;;;;;;5;36014094;41268438;-86
2021/08/04 08:48:48;;;;;;;;;;;22.00;90.70;;;;;;5;36016242;41269272;-86
2021/08/04 08:52:08;;;;;;;;;;;22.50;86.40;;;;;;5;36014516;41266429;-86
2021/08/04 08:55:27;;;;;;;;;;;22.60;83.60;;;;;;5;36015355;41268486;-87
2021/08/04 08:58:41;;;;;;;;;;;22.20;82.00;;;;;;5;36015120;41267714;-86
2021/08/04 09:01:58;;;;;;;;;;;21.90;84.20;;;;;;5;36018395;41269062;-85
2021/08/04 09:05:20;;;;;;;;;;;21.70;85.50;;;;;;5;36016027;41268582;-82
2021/08/04 09:08:41;;;;;;;;;;;21.30;83.70;;;;;;5;36020902;42016410;-82
2021/08/04 09:11:56;;;;;;;;;;;20.90;87.00;;;;;;5;36015134;41268270;-80
2021/08/04 09:15:23;;;;;;;;;;;20.90;87.30;;;;;;5;36014591;41267294;-83
2021/08/04 09:18:56;;;;;;;;;;;20.80;86.70;;;;;;5;36014591;41267161;-84
2021/08/04 09:22:25;;;;;;;;;;;20.50;87.50;;;;;;5;36014386;41267019;-85
2021/08/04 09:25:39;;;;;;;;;;;20.30;86.50;;;;;;5;36015361;41267693;-83
2021/08/04 09:29:03;;;;;;;;;;;20.00;90.20;;;;;;5;36014960;41267638;-85
2021/08/04 09:32:23;;;;;;;;;;;19.70;90.30;;;;;;5;36014667;41267730;-85
2021/08/04 09:35:44;;;;;;;;;;;19.60;91.90;;;;;;5;36014316;41267137;-84
2021/08/04 09:39:03;;;;;;;;;;;19.50;90.00;;;;;;5;36013992;41267616;-86
2021/08/04 09:42:43;;;;;;;;;;;19.50;91.60;;;;;;5;36014351;42019246;-87
2021/08/04 09:46:03;;;;;;;;;;;19.50;90.40;;;;;;5;36014330;41267554;-85
2021/08/04 09:49:22;;;;;;;;;;;19.50;90.60;;;;;;5;36015521;41267461;-86
2021/08/04 09:52:50;;;;;;;;;;;19.70;90.90;;;;;;5;36015975;41266766;-84
2021/08/04 09:56:07;;;;;;;;;;;20.00;90.70;;;;;;5;36014451;41267035;-85
2021/08/04 09:59:27;;;;;;;;;;;20.40;91.00;;;;;;5;36017225;41267644;-87
2021/08/04 10:02:47;;;;;;;;;;;20.90;87.50;;;;;;5;36015977;41267507;-87
2021/08/04 10:06:01;;;;;;;;;;;21.10;85.90;;;;;;5;36015035;41268121;-87
2021/08/04 10:09:18;;;;;;;;;;;21.50;84.90;;;;;;5;36014117;41268425;-84
2021/08/04 10:12:38;;;;;;;;;;;21.70;86.30;;;;;;5;36013947;41266991;-87
2021/08/04 10:15:59;;;;;;;;;;;22.10;84.50;;;;;;5;36017240;42017789;-87
2021/08/04 10:19:14;;;;;;;;;;;22.90;81.50;;;;;;5;36014750;41268810;-85
2021/08/04 10:22:31;;;;;;;;;;;23.00;77.90;;;;;;5;36014780;41268396;-85
2021/08/04 10:25:52;;;;;;;;;;;22.90;78.10;;;;;;5;36015015;41266805;-85
2021/08/04 10:29:11;;;;;;;;;;;22.80;76.90;;;;;;5;36014621;41267711;-85
2021/08/04 10:32:27;;;;;;;;;;;22.70;78.80;;;;;;5;36014653;41268687;-86
2021/08/04 10:35:52;;;;;;;;;;;22.40;77.40;;;;;;5;36015634;41267075;-85
2021/08/04 10:39:13;;;;;;;;;;;22.30;78.70;;;;;;5;36014065;41267693;-86
2021/08/04 10:42:42;;;;;;;;;;;21.90;79.30;;;;;;5;36015998;41266527;-87
2021/08/04 10:45:57;;;;;;;;;;;21.80;79.80;;;;;;5;36015114;41267928;-85
2021/08/04 10:49:17;;;;;;;;;;;21.80;83.20;;;;;;5;36014551;42017672;-86
2021/08/04 10:52:56;;;;;;;;;;;21.70;82.30;;;;;;5;36015062;41267462;-86
2021/08/04 10:56:15;;;;;;;;;;;21.60;82.90;;;;;;5;36015276;41267184;-86
2021/08/04 10:59:30;;;;;;;;;;;21.40;83.70;;;;;;5;36015128;41268114;-85
2021/08/04 11:02:48;;;;;;;;;;;21.10;84.90;;;;;;5;36016718;41268026;-85
2021/08/04 11:06:09;;;;;;;;;;;21.10;86.30;;;;;;5;36014182;41269156;-86
2021/08/04 11:09:32;;;;;;;;;;;21.00;87.10;;;;;;5;36016469;41267818;-86
2021/08/04 11:12:47;;;;;;;;;;;21.10;86.10;;;;;;5;36013881;41268710;-86
2021/08/04 11:16:23;;;;;;;;;;;20.90;84.30;;;;;;5;36014464;41267832;-85
2021/08/04 11:20:09;;;;;;;;;;;20.60;85.30;;;;;;5;36015582;41266131;-84
2021/08/04 11:23:44;;;;;;;;;;;20.70;86.90;;;;;;5;36014189;42018263;-84
2021/08/04 11:27:04;;;;;;;;;;;20.70;89.70;;;;;;5;36014618;41267784;-83
2021/08/04 11:30:27;;;;;;;;;;;20.50;89.00;;;;;;5;36015157;41267873;-86
2021/08/04 11:33:47;;;;;;;;;;;20.50;90.00;;;;;;5;36014915;41268784;-85
2021/08/04 11:37:06;;;;;;;;;;;20.70;88.40;;;;;;5;36015484;41266937;-85
2021/08/04 11:40:23;;;;;;;;;;;20.90;88.00;;;;;;5;36014487;41268266;-86
2021/08/04 11:43:40;;;;;;;;;;;21.20;89.50;;;;;;5;36014606;41268533;-85
2021/08/04 11:47:06;;;;;;;;;;;21.20;86.90;;;;;;5;36014638;41267732;-84
2021/08/04 11:50:25;;;;;;;;;;;21.40;86.30;;;;;;5;36015118;41268235;-86
2021/08/04 11:53:43;;;;;;;;;;;21.80;86.50;;;;;;5;36014700;41266993;-84
2021/08/04 11:57:06;;;;;;;;;;;21.90;82.30;;;;;;5;36013831;42018810;-83
2021/08/04 12:00:31;;;;;;;;;;;22.40;84.60;;;;;;5;36031307;41276807;-85
2021/08/04 12:04:01;;;;;;;;;;;22.70;82.90;;;;;;5;36015940;41268344;-84
2021/08/04 12:07:16;;;;;;;;;;;23.00;80.90;;;;;;5;36016273;41268784;-89
2021/08/04 12:10:34;;;;;;;;;;;23.20;79.70;;;;;;5;36015043;41268632;-88
2021/08/04 12:14:03;;;;;;;;;;;23.40;80.60;;;;;;5;36013958;41269077;-88
2021/08/04 12:17:33;;;;;;;;;;;23.30;77.30;;;;;;5;36013991;41267955;-88
2021/08/04 12:20:48;;;;;;;;;;;22.90;79.70;;;;;;5;36015624;41268012;-88
2021/08/04 12:24:05;;;;;;;;;;;22.70;78.80;;;;;;5;36013442;41267496;-89
2021/08/04 12:27:51;;;;;;;;;;;22.30;80.90;;;;;;5;36014379;41267340;-87
2021/08/04 12:31:12;;;;;;;;;;;21.90;84.00;;;;;;5;36014506;42016369;-87
2021/08/04 12:34:27;;;;;;;;;;;21.70;85.30;;;;;;5;36015091;41265695;-86
2021/08/04 12:37:44;;;;;;;;;;;21.60;86.90;;;;;;5;36015500;41267256;-86
2021/08/04 12:41:04;;;;;;;;;;;21.40;87.40;;;;;;5;36013244;41266941;-88
2021/08/04 12:44:23;;;;;;;;;;;21.20;88.40;;;;;;5;36013651;41267038;-87
2021/08/04 12:47:37;;;;;;;;;;;21.00;89.40;;;;;;5;36015390;41265960;-88
2021/08/04 12:50:56;;;;;;;;;;;20.90;90.30;;;;;;5;36014205;41267823;-86
2021/08/04 12:54:25;;;;;;;;;;;20.60;90.60;;;;;;5;36014149;41267643;-87
2021/08/04 12:57:45;;;;;;;;;;;20.50;90.70;;;;;;5;36014462;41266924;-88
2021/08/04 13:01:16;;;;;;;;;;;20.50;91.00;;;;;;5;36014565;41268005;-84
2021/08/04 13:04:35;;;;;;;;;;;20.40;91.40;;;;;;5;36014783;42018696;-86
2021/08/04 13:07:54;;;;;;;;;;;20.30;91.40;;;;;;5;36016307;41269662;-86
2021/08/04 13:11:26;;;;;;;;;;;20.20;91.40;;;;;;5;36014588;41269130;-86
2021/08/04 13:14:59;;;;;;;;;;;20.20;91.80;;;;;;5;36013868;41268909;-86
2021/08/04 13:18:16;;;;;;;;;;;20.10;91.70;;;;;;5;36015114;41266484;-86
2021/08/04 13:21:36;;;;;;;;;;;20.10;91.90;;;;;;5;36014521;41266467;-86
2021/08/04 13:25:04;;;;;;;;;;;20.20;92.10;;;;;;5;36015032;41266587;-87
2021/08/04 13:28:20;;;;;;;;;;;20.10;92.30;;;;;;5;36014685;41267380;-86
2021/08/04 13:31:37;;;;;;;;;;;20.00;92.50;;;;;;5;36013427;41267882;-86
2021/08/04 13:34:56;;;;;;;;;;;20.00;92.80;;;;;;5;36014362;41266722;-87
2021/08/04 13:38:17;;;;;;;;;;;19.90;92.80;;;;;;5;36016166;42016720;-85
2021/08/04 13:41:31;;;;;;;;;;;19.90;93.10;;;;;;5;36014725;41267453;-86
2021/08/04 13:44:49;;;;;;;;;;;19.90;94.10;;;;;;5;36014795;41267197;-85
2021/08/04 13:48:08;;;;;;;;;;;19.90;94.20;;;;;;5;36015196;41268644;-85
2021/08/04 13:51:28;;;;;;;;;;;19.80;94.10;;;;;;5;36014817;41266695;-85
2021/08/04 13:54:42;;;;;;;;;;;19.70;94.50;;;;;;5;36015141;41266871;-86
2021/08/04 13:57:59;;;;;;;;;;;19.70;94.50;;;;;;5;36014186;41265722;-84
2021/08/04 14:01:19;;;;;;;;;;;19.70;95.00;;;;;;5;36013511;41266467;-85
2021/08/04 14:04:40;;;;;;;;;;;19.60;94.90;;;;;;5;36014340;41266033;-86
2021/08/04 14:07:55;;;;;;;;;;;19.50;95.30;;;;;;5;36013706;41268417;-84
2021/08/04 14:11:13;;;;;;;;;;;19.40;95.70;;;;;;5;36014272;42017316;-87
2021/08/04 14:14:33;;;;;;;;;;;19.40;95.30;;;;;;5;36014728;41266829;-85
2021/08/04 14:17:52;;;;;;;;;;;19.40;95.90;;;;;;5;36015263;41266470;-83
2021/08/04 14:21:07;;;;;;;;;;;19.40;96.30;;;;;;5;36013741;41266270;-86
2021/08/04 14:24:24;;;;;;;;;;;19.30;96.40;;;;;;5;36013895;41265729;-87
2021/08/04 14:27:43;;;;;;;;;;;19.30;96.50;;;;;;5;36014006;41266342;-86
2021/08/04 14:31:03;;;;;;;;;;;19.30;96.00;;;;;;5;36014260;41266311;-85
2021/08/04 14:34:17;;;;;;;;;;;19.30;95.80;;;;;;5;36013766;41267466;-87
2021/08/04 14:37:35;;;;;;;;;;;19.30;96.30;;;;;;5;36013958;41266610;-86
2021/08/04 14:40:54;;;;;;;;;;;19.20;94.50;;;;;;5;36015233;41266029;-86
2021/08/04 14:44:15;;;;;;;;;;;19.20;94.90;;;;;;5;36013870;42016220;-85
2021/08/04 14:47:29;;;;;;;;;;;19.10;93.50;;;;;;5;36014146;41266142;-88
2021/08/04 14:50:47;;;;;;;;;;;19.10;93.60;;;;;;5;36013485;41267983;-87
2021/08/04 14:54:06;;;;;;;;;;;18.90;93.70;;;;;;5;36015291;41266460;-85
2021/08/04 14:57:26;;;;;;;;;;;18.70;94.50;;;;;;5;36014904;41267497;-86
2021/08/04 15:00:40;;;;;;;;;;;18.50;95.30;;;;;;5;36016110;41269924;-86
2021/08/04 15:03:59;;;;;;;;;;;18.30;95.70;;;;;;5;36014354;41270991;-85
2021/08/04 15:07:19;;;;;;;;;;;18.20;95.80;;;;;;5;36013784;41266728;-87
2021/08/04 15:10:54;;;;;;;;;;;18.10;96.60;;;;;;5;36014055;41266090;-86
2021/08/04 15:14:08;;;;;;;;;;;18.10;96.50;;;;;;5;36014370;41267101;-85
2021/08/04 15:17:27;;;;;;;;;;;18.10;96.90;;;;;;5;36013665;42016418;-86
2021/08/04 15:20:50;;;;;;;;;;;18.10;96.90;;;;;;5;36015711;41267380;-85
2021/08/04 15:24:10;;;;;;;;;;;18.10;96.90;;;;;;5;36013317;41267056;-85
2021/08/04 15:27:24;;;;;;;;;;;18.00;97.40;;;;;;5;36014731;41267498;-86
2021/08/04 15:30:41;;;;;;;;;;;18.00;98.10;;;;;;5;36015496;41267106;-86
2021/08/04 15:34:01;;;;;;;;;;;18.00;97.90;;;;;;5;36015110;41268367;-86
2021/08/04 15:37:20;;;;;;;;;;;18.00;98.70;;;;;;5;36015076;41267236;-87
2021/08/04 15:40:34;;;;;;;;;;;18.00;99.20;;;;;;5;36014300;41266430;-86
2021/08/04 15:43:51;;;;;;;;;;;17.90;99.20;;;;;;5;36014395;41265673;-86
2021/08/04 15:47:11;;;;;;;;;;;17.90;98.90;;;;;;5;36014015;41266813;-86
2021/08/04 15:50:32;;;;;;;;;;;17.90;99.70;;;;;;5;36013700;42017194;-85
2021/08/04 15:53:46;;;;;;;;;;;17.90;99.90;;;;;;5;36014242;41267225;-85
2021/08/04 15:57:03;;;;;;;;;;;17.90;99.90;;;;;;5;36013611;41266427;-87
2021/08/04 16:00:23;;;;;;;;;;;17.80;99.90;;;;;;5;36014791;41268534;-88
2021/08/04 16:03:42;;;;;;;;;;;17.80;99.90;;;;;;5;36013437;41267145;-85
2021/08/04 16:06:56;;;;;;;;;;;17.80;99.90;;;;;;5;36014806;41266599;-87
2021/08/04 16:10:14;;;;;;;;;;;17.80;99.90;;;;;;5;36015015;41267516;-85
2021/08/04 16:13:33;;;;;;;;;;;17.70;99.90;;;;;;5;36014795;41266687;-84
2021/08/04 16:16:53;;;;;;;;;;;17.70;99.90;;;;;;5;36016812;41266315;-85
2021/08/04 16:20:08;;;;;;;;;;;17.60;99.90;;;;;;5;36013902;41266905;-84
2021/08/04 16:23:27;;;;;;;;;;;17.60;99.90;;;;;;5;36014174;42018949;-86
2021/08/04 16:26:47;;;;;;;;;;;17.60;99.90;;;;;;5;36014318;41268759;-85
2021/08/04 16:30:07;;;;;;;;;;;17.50;99.90;;;;;;5;36014828;41267564;-87
2021/08/04 16:33:23;;;;;;;;;;;17.40;99.90;;;;;;5;36013737;41267564;-86
2021/08/04 16:36:40;;;;;;;;;;;17.30;99.90;;;;;;5;36013927;41268199;-87
2021/08/04 16:39:59;;;;;;;;;;;17.30;99.90;;;;;;5;36013815;41267413;-90
2021/08/04 16:43:18;;;;;;;;;;;17.40;99.90;;;;;;5;36014233;41266848;-86
2021/08/04 16:46:34;;;;;;;;;;;17.40;99.90;;;;;;5;36015395;41267044;-87
2021/08/04 16:49:51;;;;;;;;;;;17.40;99.90;;;;;;5;36014894;41267259;-86
2021/08/04 16:53:11;;;;;;;;;;;17.20;99.90;;;;;;5;36016755;41269201;-87
2021/08/04 16:56:31;;;;;;;;;;;17.20;99.90;;;;;;5;36014660;42016905;-85
2021/08/04 16:59:46;;;;;;;;;;;17.30;99.90;;;;;;5;36013905;41267036;-86
2021/08/04 17:03:05;;;;;;;;;;;17.40;99.90;;;;;;5;36015233;41268292;-84
2021/08/04 17:06:26;;;;;;;;;;;17.30;99.90;;;;;;5;36014193;41267595;-87
2021/08/04 17:09:45;;;;;;;;;;;17.20;99.90;;;;;;5;36015485;41269001;-86
2021/08/04 17:12:59;;;;;;;;;;;17.10;99.90;;;;;;5;36015578;41268449;-86
2021/08/04 17:16:17;;;;;;;;;;;17.10;99.90;;;;;;5;36014324;41268208;-88
2021/08/04 17:19:36;;;;;;;;;;;17.00;99.90;;;;;;5;36013936;41269169;-85
2021/08/04 17:22:56;;;;;;;;;;;17.00;99.90;;;;;;5;36015518;41266227;-86
2021/08/04 17:26:10;;;;;;;;;;;17.00;99.90;;;;;;5;36014382;41267405;-86
2021/08/04 17:29:29;;;;;;;;;;;17.00;99.90;;;;;;5;36014077;42016739;-84
2021/08/04 17:32:48;;;;;;;;;;;17.00;99.90;;;;;;5;36015687;41266330;-86
2021/08/04 17:36:08;;;;;;;;;;;16.90;99.90;;;;;;5;36015874;41268368;-85
2021/08/04 17:39:22;;;;;;;;;;;17.00;99.90;;;;;;5;36014988;41269280;-85
2021/08/04 17:42:39;;;;;;;;;;;17.00;99.90;;;;;;5;36016565;41267807;-85
2021/08/04 17:46:00;;;;;;;;;;;17.00;99.90;;;;;;5;36014718;41267387;-85
2021/08/04 17:49:19;;;;;;;;;;;16.90;99.90;;;;;;5;36015578;41268476;-85
2021/08/04 17:52:34;;;;;;;;;;;16.90;99.90;;;;;;5;36015517;41267053;-85
2021/08/04 17:55:51;;;;;;;;;;;16.90;99.90;;;;;;5;36015055;41267121;-84
2021/08/04 17:59:10;;;;;;;;;;;16.90;99.90;;;;;;5;36016120;41267892;-85
2021/08/04 18:02:33;;;;;;;;;;;16.90;99.90;;;;;;5;36014584;42018228;-84
2021/08/04 18:05:48;;;;;;;;;;;16.90;99.90;;;;;;5;36015161;41267694;-85
2021/08/04 18:09:06;;;;;;;;;;;16.90;99.90;;;;;;5;36015081;41267207;-84
2021/08/04 18:12:25;;;;;;;;;;;16.90;99.90;;;;;;5;36013686;41268293;-84
2021/08/04 18:15:45;;;;;;;;;;;16.80;99.90;;;;;;5;36015449;41269133;-84
2021/08/04 18:18:59;;;;;;;;;;;16.70;99.90;;;;;;5;36015086;41266409;-85
2021/08/04 18:22:16;;;;;;;;;;;16.60;99.90;;;;;;5;36015466;41266910;-84
2021/08/04 18:25:36;;;;;;;;;;;16.60;99.90;;;;;;5;36015314;41267015;-84
2021/08/04 18:28:55;;;;;;;;;;;16.50;99.90;;;;;;5;36015800;41267719;-84
2021/08/04 18:32:09;;;;;;;;;;;16.50;99.90;;;;;;5;36014294;41268171;-84
2021/08/04 18:35:28;;;;;;;;;;;16.50;99.90;;;;;;5;36014203;42017166;-84
2021/08/04 18:38:48;;;;;;;;;;;16.50;99.90;;;;;;5;36014335;41268731;-84
2021/08/04 18:42:08;;;;;;;;;;;16.40;99.90;;;;;;5;36014444;41265954;-84
2021/08/04 18:45:22;;;;;;;;;;;16.30;99.90;;;;;;5;36015202;41266701;-84
2021/08/04 18:48:39;;;;;;;;;;;16.30;99.90;;;;;;5;36014077;41266600;-83
2021/08/04 18:51:59;;;;;;;;;;;16.30;99.90;;;;;;5;36014117;41266121;-83
2021/08/04 18:55:18;;;;;;;;;;;16.20;99.90;;;;;;5;36015057;41268193;-83
2021/08/04 18:58:32;;;;;;;;;;;16.20;99.90;;;;;;5;36017193;41269411;-85
2021/08/04 19:01:49;;;;;;;;;;;16.20;99.90;;;;;;5;36014109;41267562;-85
2021/08/04 19:05:09;;;;;;;;;;;16.20;99.90;;;;;;5;36015081;41266891;-85
2021/08/04 19:08:30;;;;;;;;;;;16.20;99.90;;;;;;5;36015241;42016766;-84
2021/08/04 19:11:44;;;;;;;;;;;16.20;99.90;;;;;;5;36014991;41266845;-86
2021/08/04 19:15:02;;;;;;;;;;;16.20;99.90;;;;;;5;36015314;41267082;-85
2021/08/04 19:18:21;;;;;;;;;;;16.20;99.90;;;;;;5;36015050;41268310;-84
2021/08/04 19:21:42;;;;;;;;;;;16.10;99.90;;;;;;5;36015267;41267285;-84
2021/08/04 19:24:58;;;;;;;;;;;16.10;99.90;;;;;;5;36014437;41267426;-85
2021/08/04 19:28:15;;;;;;;;;;;16.10;99.90;;;;;;5;36014629;41267133;-84
2021/08/04 19:31:35;;;;;;;;;;;16.10;99.90;;;;;;5;36015405;41266707;-83
2021/08/04 19:34:54;;;;;;;;;;;16.10;99.90;;;;;;5;36015815;41265503;-83
2021/08/04 19:38:08;;;;;;;;;;;16.10;99.90;;;;;;5;36014919;41266041;-84
2021/08/04 19:41:27;;;;;;;;;;;16.10;99.90;;;;;;5;36014477;42016251;-82
2021/08/04 19:44:46;;;;;;;;;;;16.10;99.90;;;;;;5;36013165;41266118;-83
2021/08/04 19:48:06;;;;;;;;;;;16.10;99.90;;;;;;5;36014382;41268047;-82
2021/08/04 19:51:20;;;;;;;;;;;16.10;99.90;;;;;;5;36013555;41266759;-83
2021/08/04 19:54:37;;;;;;;;;;;16.10;99.90;;;;;;5;36014300;41266292;-82
2021/08/04 19:57:56;;;;;;;;;;;16.10;99.90;;;;;;5;36013993;41266831;-83
2021/08/04 20:01:17;;;;;;;;;;;16.20;99.90;;;;;;5;36013959;41266535;-84
2021/08/04 20:04:31;;;;;;;;;;;16.20;99.90;;;;;;5;36015961;41270703;-83
2021/08/04 20:07:48;;;;;;;;;;;16.10;99.90;;;;;;5;36015018;41267267;-83
2021/08/04 20:11:07;;;;;;;;;;;16.10;99.90;;;;;;5;36014091;41268933;-83
2021/08/04 20:14:28;;;;;;;;;;;16.20;99.90;;;;;;5;36015830;42017173;-84
2021/08/04 20:17:43;;;;;;;;;;;16.20;99.90;;;;;;5;36013908;41267191;-83
2021/08/04 20:21:00;;;;;;;;;;;16.20;99.90;;;;;;5;36014241;41266449;-83
2021/08/04 20:24:19;;;;;;;;;;;16.10;99.90;;;;;;5;36014123;41268326;-83
2021/08/04 20:27:39;;;;;;;;;;;16.10;99.90;;;;;;5;36017411;41268409;-83
2021/08/04 20:30:53;;;;;;;;;;;16.00;99.90;;;;;;5;36015776;41266660;-83
2021/08/04 20:34:10;;;;;;;;;;;16.00;99.90;;;;;;5;36015385;41269946;-83
2021/08/04 20:37:30;;;;;;;;;;;16.00;99.90;;;;;;5;36016051;41268229;-83
2021/08/04 20:40:49;;;;;;;;;;;16.00;99.90;;;;;;5;36015099;41266947;-83
2021/08/04 20:44:04;;;;;;;;;;;16.00;99.90;;;;;;5;36014843;41267229;-83
2021/08/04 20:47:23;;;;;;;;;;;16.00;99.90;;;;;;5;36014239;42019433;-83
2021/08/04 20:50:44;;;;;;;;;;;16.00;99.90;;;;;;5;36014125;41267579;-83
2021/08/04 20:54:03;;;;;;;;;;;15.90;99.90;;;;;;5;36013826;41266467;-83
2021/08/04 20:57:19;;;;;;;;;;;15.90;99.90;;;;;;5;36014621;41266492;-83
2021/08/04 21:00:39;;;;;;;;;;;16.00;99.90;;;;;;5;36015260;41268236;-83
2021/08/04 21:03:59;;;;;;;;;;;15.90;99.90;;;;;;5;36014334;41269064;-83
2021/08/04 21:07:18;;;;;;;;;;;15.90;99.90;;;;;;5;36015085;41265857;-83
2021/08/04 21:10:33;;;;;;;;;;;15.90;99.90;;;;;;5;36015383;41266742;-85
2021/08/04 21:13:50;;;;;;;;;;;15.90;99.90;;;;;;5;36013793;41267828;-84
2021/08/04 21:17:09;;;;;;;;;;;15.90;99.90;;;;;;5;36015312;41265992;-85
2021/08/04 21:20:30;;;;;;;;;;;15.90;99.90;;;;;;5;36016524;42017354;-84